ROT301V LROP-EDDF
Flight info
| Callsign | ROT301V |
|---|---|
| Flight time | 2h 13m |
| Altitude | 36000 |
| Route | SOKRU DCT OXDOC DCT DEGET DCT ARSIN DCT SUBEN DCT AKINI T161 DEBHI DEBHI1C |
| Aircraft | B737/M-SDE2E3FGHIRWXY/LB1 |
Departure
| Time | 2026-05-01 12:45 |
|---|---|
| Airport | Bucharest Henri Coandă International Airport (LROP) |
Arrival
| Time | 2026-05-01 14:58 |
|---|---|
| Airport | Frankfurt Main Airport (EDDF) |
| Time | Latitude | Longitude | Altitude | Speed | Heading |
|---|---|---|---|---|---|
| 2026-05-01 12:23 | 44.57116 | 26.07881 | 319 ft | 0 kts | 173° |
| 2026-05-01 12:38 | 44.57117 | 26.07881 | 319 ft | 1 kts | 174° |
| 2026-05-01 12:38 | 44.57132 | 26.07879 | 319 ft | 2 kts | 173° |
| 2026-05-01 12:38 | 44.57147 | 26.07876 | 319 ft | 2 kts | 173° |
| 2026-05-01 12:38 | 44.57161 | 26.07874 | 319 ft | 2 kts | 173° |
| 2026-05-01 12:39 | 44.57176 | 26.07872 | 319 ft | 2 kts | 174° |
| 2026-05-01 12:39 | 44.57191 | 26.07869 | 319 ft | 2 kts | 173° |
| 2026-05-01 12:39 | 44.57195 | 26.07869 | 319 ft | 0 kts | 173° |
| 2026-05-01 12:41 | 44.57185 | 26.07896 | 319 ft | 8 kts | 95° |
| 2026-05-01 12:41 | 44.57190 | 26.07996 | 319 ft | 11 kts | 84° |
| 2026-05-01 12:41 | 44.57198 | 26.08117 | 319 ft | 13 kts | 84° |
| 2026-05-01 12:42 | 44.57209 | 26.08256 | 319 ft | 15 kts | 82° |
| 2026-05-01 12:42 | 44.57227 | 26.08416 | 319 ft | 17 kts | 80° |
| 2026-05-01 12:42 | 44.57238 | 26.08485 | 319 ft | 0 kts | 67° |
| 2026-05-01 12:42 | 44.57267 | 26.08495 | 319 ft | 10 kts | 354° |
| 2026-05-01 12:43 | 44.57346 | 26.08483 | 319 ft | 12 kts | 354° |
| 2026-05-01 12:43 | 44.57440 | 26.08471 | 319 ft | 14 kts | 355° |
| 2026-05-01 12:43 | 44.57543 | 26.08455 | 319 ft | 15 kts | 354° |
| 2026-05-01 12:43 | 44.57653 | 26.08454 | 319 ft | 16 kts | 29° |
| 2026-05-01 12:44 | 44.57675 | 26.08556 | 319 ft | 16 kts | 85° |
| 2026-05-01 12:44 | 44.57690 | 26.08791 | 319 ft | 51 kts | 84° |
| 2026-05-01 12:44 | 44.57812 | 26.10421 | 330 ft | 162 kts | 83° |
| 2026-05-01 12:45 | 44.58013 | 26.13408 | 2033 ft | 164 kts | 85° |
| 2026-05-01 12:45 | 44.58151 | 26.14997 | 2653 ft | 169 kts | 83° |
| 2026-05-01 12:45 | 44.58292 | 26.16698 | 3052 ft | 183 kts | 83° |
| 2026-05-01 12:46 | 44.58429 | 26.18531 | 3524 ft | 194 kts | 82° |
| 2026-05-01 12:46 | 44.58608 | 26.20458 | 3966 ft | 206 kts | 72° |
| 2026-05-01 12:46 | 44.59346 | 26.22206 | 4352 ft | 218 kts | 41° |
| 2026-05-01 12:46 | 44.60693 | 26.23303 | 4741 ft | 233 kts | 18° |
| 2026-05-01 12:47 | 44.62326 | 26.23639 | 5179 ft | 247 kts | 355° |
| 2026-05-01 12:47 | 44.63947 | 26.22741 | 5618 ft | 262 kts | 322° |
| 2026-05-01 12:47 | 44.65186 | 26.20850 | 6291 ft | 268 kts | 309° |
| 2026-05-01 12:47 | 44.66320 | 26.18771 | 7037 ft | 269 kts | 315° |
| 2026-05-01 12:48 | 44.67845 | 26.17395 | 7824 ft | 264 kts | 345° |
| 2026-05-01 12:48 | 44.69646 | 26.17148 | 8663 ft | 261 kts | 1° |
| 2026-05-01 12:48 | 44.71449 | 26.17216 | 9458 ft | 262 kts | 1° |
| 2026-05-01 12:48 | 44.73263 | 26.17140 | 10315 ft | 262 kts | 357° |
| 2026-05-01 12:49 | 44.75099 | 26.16836 | 10850 ft | 275 kts | 348° |
| 2026-05-01 12:49 | 44.76886 | 26.15697 | 11262 ft | 295 kts | 325° |
| 2026-05-01 12:49 | 44.78284 | 26.13472 | 11670 ft | 316 kts | 307° |
| 2026-05-01 12:49 | 44.79458 | 26.10807 | 12274 ft | 325 kts | 304° |
| 2026-05-01 12:50 | 44.80617 | 26.08051 | 12991 ft | 330 kts | 304° |
| 2026-05-01 12:50 | 44.81798 | 26.05265 | 13712 ft | 335 kts | 304° |
| 2026-05-01 12:50 | 44.83013 | 26.02448 | 14470 ft | 340 kts | 305° |
| 2026-05-01 12:50 | 44.84257 | 25.99596 | 15271 ft | 344 kts | 305° |
| 2026-05-01 12:51 | 44.85477 | 25.96701 | 16050 ft | 349 kts | 302° |
| 2026-05-01 12:51 | 44.86554 | 25.93633 | 16839 ft | 354 kts | 296° |
| 2026-05-01 12:51 | 44.88177 | 25.87025 | 18353 ft | 363 kts | 289° |
| 2026-05-01 12:52 | 44.88877 | 25.83614 | 19118 ft | 365 kts | 288° |
| 2026-05-01 12:52 | 44.90276 | 25.76697 | 20577 ft | 371 kts | 288° |
| 2026-05-01 12:52 | 44.90997 | 25.73195 | 21292 ft | 374 kts | 288° |
| 2026-05-01 12:53 | 44.92461 | 25.66129 | 22634 ft | 379 kts | 289° |
| 2026-05-01 12:53 | 44.93205 | 25.62551 | 23281 ft | 382 kts | 289° |
| 2026-05-01 12:53 | 44.93951 | 25.58960 | 23901 ft | 385 kts | 288° |
| 2026-05-01 12:54 | 44.94703 | 25.55333 | 24504 ft | 388 kts | 288° |
| 2026-05-01 12:54 | 44.96224 | 25.47981 | 25582 ft | 395 kts | 288° |
| 2026-05-01 12:54 | 44.96993 | 25.44259 | 26092 ft | 398 kts | 288° |
| 2026-05-01 12:55 | 44.98551 | 25.36687 | 27043 ft | 405 kts | 288° |
| 2026-05-01 12:55 | 44.99343 | 25.32839 | 27520 ft | 408 kts | 288° |
| 2026-05-01 12:55 | 45.00225 | 25.28952 | 27987 ft | 410 kts | 290° |
| 2026-05-01 12:56 | 45.01191 | 25.25149 | 28455 ft | 412 kts | 292° |
| 2026-05-01 12:56 | 45.02208 | 25.21329 | 28846 ft | 416 kts | 293° |
| 2026-05-01 12:56 | 45.03364 | 25.17591 | 29302 ft | 417 kts | 297° |
| 2026-05-01 12:56 | 45.04705 | 25.13940 | 29678 ft | 420 kts | 300° |
| 2026-05-01 12:57 | 45.06132 | 25.10349 | 30124 ft | 421 kts | 301° |
| 2026-05-01 12:57 | 45.09045 | 25.03278 | 31258 ft | 415 kts | 302° |
| 2026-05-01 12:57 | 45.10496 | 24.99746 | 31635 ft | 416 kts | 301° |
| 2026-05-01 12:58 | 45.11932 | 24.96222 | 32030 ft | 415 kts | 301° |
| 2026-05-01 12:58 | 45.13364 | 24.92679 | 32360 ft | 416 kts | 301° |
| 2026-05-01 12:58 | 45.14787 | 24.89134 | 32666 ft | 416 kts | 301° |
| 2026-05-01 12:59 | 45.17629 | 24.82000 | 33251 ft | 418 kts | 301° |
| 2026-05-01 12:59 | 45.19045 | 24.78425 | 33552 ft | 418 kts | 302° |
| 2026-05-01 12:59 | 45.21881 | 24.71241 | 34108 ft | 419 kts | 301° |
| 2026-05-01 13:00 | 45.24709 | 24.64052 | 34832 ft | 417 kts | 302° |
| 2026-05-01 13:00 | 45.26110 | 24.60480 | 35204 ft | 415 kts | 302° |
| 2026-05-01 13:01 | 45.28906 | 24.53342 | 35752 ft | 416 kts | 302° |
| 2026-05-01 13:01 | 45.30305 | 24.49766 | 36013 ft | 417 kts | 302° |
| 2026-05-01 13:01 | 45.33124 | 24.42547 | 36199 ft | 419 kts | 302° |
| 2026-05-01 13:02 | 45.34526 | 24.38951 | 36201 ft | 416 kts | 302° |
| 2026-05-01 13:07 | 45.65108 | 23.59248 | 36162 ft | 419 kts | 302° |
| 2026-05-01 13:08 | 45.67874 | 23.51927 | 36171 ft | 420 kts | 303° |
| 2026-05-01 13:08 | 45.70642 | 23.44578 | 36183 ft | 421 kts | 303° |
| 2026-05-01 13:09 | 45.73409 | 23.37212 | 36202 ft | 421 kts | 303° |
| 2026-05-01 13:09 | 45.76173 | 23.29836 | 36224 ft | 422 kts | 302° |
| 2026-05-01 13:10 | 45.78922 | 23.22482 | 36241 ft | 423 kts | 302° |
| 2026-05-01 13:10 | 45.81687 | 23.15059 | 36245 ft | 423 kts | 303° |
| 2026-05-01 13:11 | 45.84447 | 23.07628 | 36249 ft | 422 kts | 302° |
| 2026-05-01 13:11 | 45.87206 | 23.00184 | 36246 ft | 424 kts | 303° |
| 2026-05-01 13:12 | 45.89963 | 22.92723 | 36247 ft | 424 kts | 303° |
| 2026-05-01 13:12 | 45.92706 | 22.85282 | 36243 ft | 423 kts | 303° |
| 2026-05-01 13:13 | 45.95458 | 22.77795 | 36250 ft | 425 kts | 303° |
| 2026-05-01 13:13 | 45.98214 | 22.70275 | 36256 ft | 424 kts | 303° |
| 2026-05-01 13:14 | 46.00956 | 22.62772 | 36259 ft | 425 kts | 303° |
| 2026-05-01 13:14 | 46.03701 | 22.55245 | 36260 ft | 425 kts | 303° |
| 2026-05-01 13:15 | 46.06442 | 22.47704 | 36263 ft | 425 kts | 303° |
| 2026-05-01 13:15 | 46.09158 | 22.40201 | 36254 ft | 424 kts | 303° |
| 2026-05-01 13:16 | 46.11875 | 22.32684 | 36258 ft | 423 kts | 303° |
| 2026-05-01 13:16 | 46.14608 | 22.25120 | 36258 ft | 427 kts | 303° |
| 2026-05-01 13:17 | 46.20039 | 22.09971 | 36267 ft | 426 kts | 303° |
| 2026-05-01 13:18 | 46.24112 | 21.98579 | 36269 ft | 429 kts | 304° |
| 2026-05-01 13:18 | 46.26835 | 21.90943 | 36257 ft | 429 kts | 303° |
| 2026-05-01 13:19 | 46.29530 | 21.83334 | 36267 ft | 426 kts | 304° |
| 2026-05-01 13:20 | 46.33562 | 21.71919 | 36272 ft | 427 kts | 304° |
| 2026-05-01 13:20 | 46.36252 | 21.64287 | 36286 ft | 428 kts | 304° |
| 2026-05-01 13:21 | 46.40301 | 21.52767 | 36274 ft | 429 kts | 305° |
| 2026-05-01 13:21 | 46.42986 | 21.45087 | 36283 ft | 428 kts | 304° |
| 2026-05-01 13:22 | 46.45661 | 21.37413 | 36300 ft | 427 kts | 305° |
| 2026-05-01 13:22 | 46.48346 | 21.29711 | 36274 ft | 428 kts | 304° |
| 2026-05-01 13:23 | 46.50835 | 21.21974 | 36284 ft | 435 kts | 299° |
| 2026-05-01 13:23 | 46.52958 | 21.13748 | 36280 ft | 437 kts | 297° |
| 2026-05-01 13:24 | 46.55019 | 21.05477 | 36292 ft | 436 kts | 297° |
| 2026-05-01 13:25 | 46.58161 | 20.93096 | 36298 ft | 434 kts | 298° |
| 2026-05-01 13:25 | 46.60270 | 20.84872 | 36294 ft | 435 kts | 299° |
| 2026-05-01 13:26 | 46.62381 | 20.76651 | 36301 ft | 438 kts | 298° |
| 2026-05-01 13:26 | 46.64516 | 20.68343 | 36303 ft | 437 kts | 299° |
| 2026-05-01 13:27 | 46.66621 | 20.60103 | 36302 ft | 437 kts | 299° |
| 2026-05-01 13:27 | 46.69797 | 20.47638 | 36020 ft | 441 kts | 299° |
| 2026-05-01 13:28 | 46.71900 | 20.39327 | 36282 ft | 440 kts | 299° |
| 2026-05-01 13:28 | 46.72956 | 20.35146 | 36307 ft | 439 kts | 299° |
| 2026-05-01 13:29 | 46.77152 | 20.18443 | 36303 ft | 438 kts | 298° |
| 2026-05-01 13:31 | 46.83394 | 19.93397 | 36312 ft | 440 kts | 298° |
| 2026-05-01 13:32 | 46.88556 | 19.72464 | 36302 ft | 441 kts | 298° |
| 2026-05-01 13:33 | 46.93672 | 19.51505 | 36318 ft | 439 kts | 298° |
| 2026-05-01 13:34 | 46.97738 | 19.34729 | 36301 ft | 441 kts | 298° |
| 2026-05-01 13:35 | 47.00785 | 19.22072 | 36307 ft | 439 kts | 298° |
| 2026-05-01 13:36 | 47.03811 | 19.09427 | 36303 ft | 439 kts | 297° |
| 2026-05-01 13:36 | 47.06814 | 18.96796 | 36317 ft | 438 kts | 297° |
| 2026-05-01 13:37 | 47.08804 | 18.88388 | 36309 ft | 437 kts | 298° |
| 2026-05-01 13:37 | 47.10776 | 18.80027 | 36310 ft | 438 kts | 298° |
| 2026-05-01 13:38 | 47.13741 | 18.67403 | 36314 ft | 438 kts | 298° |
| 2026-05-01 13:39 | 47.15705 | 18.58999 | 36318 ft | 438 kts | 297° |
| 2026-05-01 13:39 | 47.17666 | 18.50568 | 36308 ft | 436 kts | 297° |
| 2026-05-01 13:40 | 47.19610 | 18.42179 | 36309 ft | 437 kts | 298° |
| 2026-05-01 13:40 | 47.21567 | 18.33715 | 36316 ft | 438 kts | 297° |
| 2026-05-01 13:41 | 47.23509 | 18.25261 | 36314 ft | 437 kts | 296° |
| 2026-05-01 13:41 | 47.25445 | 18.16815 | 36310 ft | 436 kts | 297° |
| 2026-05-01 13:42 | 47.27376 | 18.08368 | 36306 ft | 437 kts | 297° |
| 2026-05-01 13:42 | 47.29298 | 17.99916 | 36310 ft | 436 kts | 296° |
| 2026-05-01 13:43 | 47.31203 | 17.91489 | 36316 ft | 435 kts | 296° |
| 2026-05-01 13:43 | 47.33104 | 17.83055 | 36317 ft | 434 kts | 296° |
| 2026-05-01 13:44 | 47.35000 | 17.74620 | 36325 ft | 435 kts | 297° |
| 2026-05-01 13:44 | 47.36888 | 17.66182 | 36325 ft | 434 kts | 296° |
| 2026-05-01 13:45 | 47.38777 | 17.57715 | 36334 ft | 436 kts | 296° |
| 2026-05-01 13:45 | 47.40410 | 17.50354 | 36336 ft | 435 kts | 296° |
| 2026-05-01 13:46 | 47.42004 | 17.43150 | 36336 ft | 435 kts | 296° |
| 2026-05-01 13:46 | 47.43873 | 17.34669 | 36342 ft | 434 kts | 296° |
| 2026-05-01 13:47 | 47.45729 | 17.26217 | 36334 ft | 435 kts | 296° |
| 2026-05-01 13:47 | 47.47593 | 17.17694 | 36329 ft | 436 kts | 296° |
| 2026-05-01 13:48 | 47.49442 | 17.09196 | 36324 ft | 434 kts | 296° |
| 2026-05-01 13:48 | 47.51285 | 17.00701 | 36321 ft | 435 kts | 296° |
| 2026-05-01 13:49 | 47.53115 | 16.92221 | 36320 ft | 433 kts | 295° |
| 2026-05-01 13:49 | 47.54941 | 16.83732 | 36319 ft | 434 kts | 296° |
| 2026-05-01 13:50 | 47.56764 | 16.75228 | 36319 ft | 433 kts | 296° |
| 2026-05-01 13:50 | 47.58844 | 16.66896 | 36319 ft | 430 kts | 300° |
| 2026-05-01 13:51 | 47.61120 | 16.58772 | 36319 ft | 427 kts | 301° |
| 2026-05-01 13:51 | 47.63209 | 16.51326 | 36318 ft | 428 kts | 301° |
| 2026-05-01 13:52 | 47.65457 | 16.43180 | 36321 ft | 428 kts | 300° |
| 2026-05-01 13:52 | 47.67676 | 16.35016 | 36320 ft | 426 kts | 300° |
| 2026-05-01 13:53 | 47.69883 | 16.26827 | 36323 ft | 429 kts | 299° |
| 2026-05-01 13:53 | 47.73163 | 16.14557 | 36324 ft | 427 kts | 299° |
| 2026-05-01 13:54 | 47.75343 | 16.06366 | 36320 ft | 426 kts | 299° |
| 2026-05-01 13:54 | 47.77515 | 15.98177 | 36321 ft | 427 kts | 299° |
| 2026-05-01 13:55 | 47.79681 | 15.89984 | 36320 ft | 426 kts | 298° |
| 2026-05-01 13:55 | 47.81841 | 15.81783 | 36319 ft | 426 kts | 298° |
| 2026-05-01 13:56 | 47.83410 | 15.75812 | 36319 ft | 427 kts | 298° |
| 2026-05-01 13:56 | 47.85568 | 15.67573 | 36318 ft | 428 kts | 298° |
| 2026-05-01 13:57 | 47.87712 | 15.59353 | 36320 ft | 425 kts | 298° |
| 2026-05-01 13:57 | 47.89842 | 15.51156 | 36318 ft | 427 kts | 298° |
| 2026-05-01 13:58 | 47.91974 | 15.42927 | 36317 ft | 425 kts | 298° |
| 2026-05-01 13:58 | 47.94088 | 15.34735 | 36316 ft | 424 kts | 297° |
| 2026-05-01 13:59 | 47.96204 | 15.26520 | 36319 ft | 427 kts | 297° |
| 2026-05-01 13:59 | 47.98320 | 15.18257 | 36319 ft | 425 kts | 297° |
| 2026-05-01 14:00 | 48.00426 | 15.10010 | 36313 ft | 427 kts | 297° |
| 2026-05-01 14:00 | 48.02527 | 15.01751 | 36310 ft | 426 kts | 297° |
| 2026-05-01 14:01 | 48.04616 | 14.93508 | 36321 ft | 425 kts | 297° |
| 2026-05-01 14:01 | 48.06696 | 14.85274 | 36323 ft | 425 kts | 297° |
| 2026-05-01 14:02 | 48.08771 | 14.77026 | 36325 ft | 426 kts | 297° |
| 2026-05-01 14:02 | 48.10842 | 14.68762 | 36325 ft | 424 kts | 297° |
| 2026-05-01 14:03 | 48.12909 | 14.60492 | 36322 ft | 426 kts | 297° |
| 2026-05-01 14:03 | 48.14967 | 14.52221 | 36322 ft | 424 kts | 296° |
| 2026-05-01 14:04 | 48.17016 | 14.43958 | 36327 ft | 424 kts | 296° |
| 2026-05-01 14:04 | 48.19057 | 14.35699 | 36329 ft | 424 kts | 296° |
| 2026-05-01 14:05 | 48.21093 | 14.27429 | 36337 ft | 424 kts | 296° |
| 2026-05-01 14:05 | 48.23124 | 14.19149 | 36340 ft | 424 kts | 295° |
| 2026-05-01 14:06 | 48.25145 | 14.10876 | 36339 ft | 424 kts | 295° |
| 2026-05-01 14:06 | 48.27161 | 14.02594 | 36334 ft | 423 kts | 295° |
| 2026-05-01 14:07 | 48.29167 | 13.94320 | 36333 ft | 423 kts | 295° |
| 2026-05-01 14:08 | 48.32167 | 13.81896 | 36324 ft | 422 kts | 295° |
| 2026-05-01 14:08 | 48.34161 | 13.73598 | 36321 ft | 423 kts | 295° |
| 2026-05-01 14:09 | 48.36136 | 13.65349 | 36320 ft | 421 kts | 295° |
| 2026-05-01 14:09 | 48.38119 | 13.57037 | 36320 ft | 422 kts | 295° |
| 2026-05-01 14:10 | 48.40089 | 13.48741 | 36312 ft | 422 kts | 295° |
| 2026-05-01 14:10 | 48.42053 | 13.40444 | 36307 ft | 421 kts | 295° |
| 2026-05-01 14:10 | 48.43030 | 13.36304 | 36612 ft | 422 kts | 295° |
| 2026-05-01 14:11 | 48.44017 | 13.32144 | 36347 ft | 421 kts | 294° |
| 2026-05-01 14:11 | 48.47199 | 13.19961 | 36303 ft | 419 kts | 296° |
| 2026-05-01 14:12 | 48.49378 | 13.11837 | 36301 ft | 419 kts | 296° |
| 2026-05-01 14:12 | 48.51538 | 13.03695 | 36298 ft | 420 kts | 296° |
| 2026-05-01 14:13 | 48.53685 | 12.95522 | 36299 ft | 418 kts | 296° |
| 2026-05-01 14:13 | 48.55809 | 12.87378 | 36300 ft | 419 kts | 296° |
| 2026-05-01 14:14 | 48.57623 | 12.80397 | 36300 ft | 417 kts | 296° |
| 2026-05-01 14:14 | 48.59733 | 12.72243 | 36300 ft | 418 kts | 295° |
| 2026-05-01 14:15 | 48.61838 | 12.64081 | 36300 ft | 417 kts | 295° |
| 2026-05-01 14:15 | 48.63931 | 12.55931 | 36298 ft | 417 kts | 295° |
| 2026-05-01 14:16 | 48.66019 | 12.47777 | 36298 ft | 417 kts | 295° |
| 2026-05-01 14:16 | 48.68099 | 12.39622 | 36300 ft | 417 kts | 295° |
| 2026-05-01 14:17 | 48.70176 | 12.31449 | 36299 ft | 417 kts | 295° |
| 2026-05-01 14:17 | 48.72245 | 12.23278 | 36297 ft | 417 kts | 294° |
| 2026-05-01 14:18 | 48.74279 | 12.15072 | 36298 ft | 418 kts | 292° |
| 2026-05-01 14:18 | 48.75701 | 12.06538 | 36293 ft | 420 kts | 284° |
| 2026-05-01 14:19 | 48.76672 | 11.97814 | 36292 ft | 421 kts | 282° |
| 2026-05-01 14:19 | 48.77559 | 11.89085 | 36292 ft | 420 kts | 282° |
| 2026-05-01 14:20 | 48.78909 | 11.75997 | 36306 ft | 420 kts | 282° |
| 2026-05-01 14:21 | 48.79818 | 11.67297 | 36318 ft | 419 kts | 282° |
| 2026-05-01 14:21 | 48.80723 | 11.58606 | 36317 ft | 418 kts | 282° |
| 2026-05-01 14:22 | 48.82069 | 11.45570 | 36317 ft | 418 kts | 282° |
| 2026-05-01 14:22 | 48.82957 | 11.36886 | 36317 ft | 418 kts | 282° |
| 2026-05-01 14:23 | 48.83924 | 11.28217 | 36309 ft | 416 kts | 286° |
| 2026-05-01 14:23 | 48.86181 | 11.20317 | 36303 ft | 407 kts | 308° |
| 2026-05-01 14:24 | 48.87984 | 11.17070 | 36083 ft | 400 kts | 316° |
| 2026-05-01 14:24 | 48.89942 | 11.14121 | 35612 ft | 396 kts | 319° |
| 2026-05-01 14:24 | 48.91951 | 11.11290 | 35030 ft | 394 kts | 320° |
| 2026-05-01 14:24 | 48.93976 | 11.08510 | 34437 ft | 393 kts | 320° |
| 2026-05-01 14:25 | 48.95984 | 11.05764 | 34038 ft | 388 kts | 320° |
| 2026-05-01 14:25 | 48.97977 | 11.03026 | 33603 ft | 385 kts | 320° |
| 2026-05-01 14:25 | 48.99947 | 11.00305 | 33148 ft | 382 kts | 320° |
| 2026-05-01 14:25 | 49.01894 | 10.97598 | 32692 ft | 379 kts | 320° |
| 2026-05-01 14:26 | 49.03830 | 10.94894 | 32236 ft | 377 kts | 320° |
| 2026-05-01 14:26 | 49.07647 | 10.89539 | 31328 ft | 372 kts | 320° |
| 2026-05-01 14:26 | 49.09535 | 10.86879 | 30883 ft | 369 kts | 320° |
| 2026-05-01 14:27 | 49.11409 | 10.84233 | 30438 ft | 367 kts | 320° |
| 2026-05-01 14:27 | 49.13277 | 10.81591 | 29978 ft | 365 kts | 320° |
| 2026-05-01 14:27 | 49.15119 | 10.78982 | 29539 ft | 362 kts | 320° |
| 2026-05-01 14:28 | 49.18769 | 10.73803 | 28667 ft | 356 kts | 320° |
| 2026-05-01 14:28 | 49.20560 | 10.71220 | 28243 ft | 354 kts | 319° |
| 2026-05-01 14:28 | 49.22290 | 10.68569 | 27817 ft | 352 kts | 317° |
| 2026-05-01 14:28 | 49.23976 | 10.65895 | 27389 ft | 349 kts | 317° |
| 2026-05-01 14:29 | 49.25645 | 10.63222 | 26964 ft | 347 kts | 316° |
| 2026-05-01 14:29 | 49.27300 | 10.60574 | 26540 ft | 344 kts | 316° |
| 2026-05-01 14:30 | 49.32212 | 10.52760 | 25286 ft | 337 kts | 317° |
| 2026-05-01 14:30 | 49.33835 | 10.50185 | 24861 ft | 335 kts | 317° |
| 2026-05-01 14:30 | 49.35432 | 10.47622 | 24445 ft | 333 kts | 315° |
| 2026-05-01 14:31 | 49.38355 | 10.41893 | 24318 ft | 353 kts | 308° |
| 2026-05-01 14:31 | 49.39756 | 10.38812 | 24312 ft | 353 kts | 307° |
| 2026-05-01 14:31 | 49.41141 | 10.35713 | 24311 ft | 353 kts | 307° |
| 2026-05-01 14:31 | 49.42528 | 10.32612 | 24310 ft | 353 kts | 307° |
| 2026-05-01 14:32 | 49.43918 | 10.29519 | 24310 ft | 353 kts | 307° |
| 2026-05-01 14:32 | 49.45319 | 10.26414 | 24310 ft | 353 kts | 307° |
| 2026-05-01 14:32 | 49.46722 | 10.23315 | 24311 ft | 354 kts | 307° |
| 2026-05-01 14:32 | 49.48129 | 10.20209 | 24311 ft | 354 kts | 307° |
| 2026-05-01 14:33 | 49.49530 | 10.17115 | 24311 ft | 354 kts | 307° |
| 2026-05-01 14:33 | 49.50933 | 10.14015 | 24310 ft | 353 kts | 307° |
| 2026-05-01 14:33 | 49.52339 | 10.10907 | 24314 ft | 353 kts | 307° |
| 2026-05-01 14:33 | 49.53731 | 10.07825 | 24311 ft | 353 kts | 307° |
| 2026-05-01 14:34 | 49.55125 | 10.04737 | 24105 ft | 349 kts | 307° |
| 2026-05-01 14:34 | 49.56501 | 10.01681 | 23689 ft | 346 kts | 307° |
| 2026-05-01 14:34 | 49.57866 | 9.98648 | 23254 ft | 343 kts | 307° |
| 2026-05-01 14:34 | 49.59217 | 9.95644 | 22834 ft | 340 kts | 307° |
| 2026-05-01 14:35 | 49.60555 | 9.92665 | 22414 ft | 338 kts | 307° |
| 2026-05-01 14:35 | 49.61627 | 9.90275 | 22077 ft | 336 kts | 307° |
| 2026-05-01 14:35 | 49.62705 | 9.87869 | 21744 ft | 334 kts | 307° |
| 2026-05-01 14:35 | 49.64017 | 9.84937 | 21331 ft | 331 kts | 307° |
| 2026-05-01 14:36 | 49.65320 | 9.82025 | 20918 ft | 329 kts | 306° |
| 2026-05-01 14:36 | 49.66611 | 9.79137 | 20513 ft | 327 kts | 306° |
| 2026-05-01 14:36 | 49.67896 | 9.76258 | 20106 ft | 326 kts | 306° |
| 2026-05-01 14:36 | 49.69173 | 9.73394 | 19700 ft | 324 kts | 306° |
| 2026-05-01 14:37 | 49.70448 | 9.70532 | 19296 ft | 322 kts | 306° |
| 2026-05-01 14:37 | 49.71712 | 9.67691 | 18896 ft | 321 kts | 306° |
| 2026-05-01 14:37 | 49.72966 | 9.64867 | 18498 ft | 319 kts | 306° |
| 2026-05-01 14:37 | 49.74219 | 9.62045 | 18103 ft | 318 kts | 306° |
| 2026-05-01 14:38 | 49.75462 | 9.59240 | 17711 ft | 317 kts | 306° |
| 2026-05-01 14:38 | 49.76699 | 9.56448 | 17317 ft | 315 kts | 306° |
| 2026-05-01 14:38 | 49.77935 | 9.53655 | 16926 ft | 314 kts | 306° |
| 2026-05-01 14:38 | 49.79162 | 9.50877 | 16538 ft | 313 kts | 306° |
| 2026-05-01 14:39 | 49.80386 | 9.48105 | 16142 ft | 312 kts | 306° |
| 2026-05-01 14:39 | 49.81603 | 9.45346 | 15754 ft | 311 kts | 306° |
| 2026-05-01 14:39 | 49.82816 | 9.42593 | 15365 ft | 310 kts | 306° |
| 2026-05-01 14:39 | 49.84025 | 9.39847 | 14974 ft | 309 kts | 306° |
| 2026-05-01 14:40 | 49.85210 | 9.37094 | 14581 ft | 308 kts | 303° |
| 2026-05-01 14:40 | 49.86242 | 9.34197 | 14292 ft | 308 kts | 295° |
| 2026-05-01 14:40 | 49.87029 | 9.31062 | 14274 ft | 316 kts | 288° |
| 2026-05-01 14:40 | 49.87678 | 9.27810 | 14121 ft | 315 kts | 286° |
| 2026-05-01 14:41 | 49.88270 | 9.24560 | 13755 ft | 312 kts | 285° |
| 2026-05-01 14:41 | 49.88851 | 9.21333 | 13364 ft | 311 kts | 285° |
| 2026-05-01 14:41 | 49.89439 | 9.18125 | 12976 ft | 309 kts | 285° |
| 2026-05-01 14:41 | 49.90036 | 9.14934 | 12587 ft | 308 kts | 286° |
| 2026-05-01 14:42 | 49.90636 | 9.11755 | 12199 ft | 307 kts | 286° |
| 2026-05-01 14:42 | 49.91234 | 9.08602 | 11811 ft | 306 kts | 286° |
| 2026-05-01 14:42 | 49.91831 | 9.05456 | 11429 ft | 305 kts | 286° |
| 2026-05-01 14:42 | 49.92425 | 9.02334 | 11266 ft | 300 kts | 286° |
| 2026-05-01 14:43 | 49.93020 | 8.99220 | 11265 ft | 304 kts | 286° |
| 2026-05-01 14:43 | 49.93624 | 8.96066 | 11262 ft | 304 kts | 286° |
| 2026-05-01 14:43 | 49.94223 | 8.92928 | 11266 ft | 303 kts | 286° |
| 2026-05-01 14:43 | 49.94821 | 8.89785 | 11267 ft | 304 kts | 286° |
| 2026-05-01 14:44 | 49.95420 | 8.86636 | 11266 ft | 303 kts | 286° |
| 2026-05-01 14:44 | 49.96607 | 8.80374 | 11270 ft | 304 kts | 286° |
| 2026-05-01 14:44 | 49.97200 | 8.77234 | 11269 ft | 304 kts | 286° |
| 2026-05-01 14:45 | 49.97766 | 8.74107 | 11268 ft | 304 kts | 282° |
| 2026-05-01 14:45 | 49.97609 | 8.67972 | 11271 ft | 300 kts | 249° |
| 2026-05-01 14:45 | 49.96845 | 8.64953 | 11268 ft | 299 kts | 245° |
| 2026-05-01 14:46 | 49.96024 | 8.61986 | 11273 ft | 299 kts | 245° |
| 2026-05-01 14:46 | 49.94472 | 8.56017 | 11271 ft | 298 kts | 247° |
| 2026-05-01 14:46 | 49.93738 | 8.53013 | 11274 ft | 298 kts | 248° |
| 2026-05-01 14:47 | 49.93011 | 8.50004 | 11270 ft | 298 kts | 248° |
| 2026-05-01 14:47 | 49.92288 | 8.47000 | 11200 ft | 298 kts | 248° |
| 2026-05-01 14:47 | 49.91566 | 8.43996 | 10959 ft | 297 kts | 248° |
| 2026-05-01 14:48 | 49.90131 | 8.38039 | 10476 ft | 294 kts | 248° |
| 2026-05-01 14:48 | 49.89416 | 8.35084 | 10234 ft | 292 kts | 248° |
| 2026-05-01 14:48 | 49.88019 | 8.29320 | 9749 ft | 283 kts | 247° |
| 2026-05-01 14:49 | 49.86637 | 8.23637 | 9265 ft | 281 kts | 247° |
| 2026-05-01 14:49 | 49.85263 | 8.18002 | 8777 ft | 278 kts | 247° |
| 2026-05-01 14:50 | 49.84849 | 8.13123 | 8366 ft | 282 kts | 282° |
| 2026-05-01 14:50 | 49.87867 | 8.08254 | 7789 ft | 280 kts | 347° |
| 2026-05-01 14:51 | 49.89791 | 8.07931 | 7358 ft | 280 kts | 1° |
| 2026-05-01 14:51 | 49.93247 | 8.09503 | 6834 ft | 242 kts | 70° |
| 2026-05-01 14:52 | 49.92960 | 8.14784 | 5577 ft | 254 kts | 94° |
| 2026-05-01 14:52 | 49.93304 | 8.17410 | 5263 ft | 251 kts | 65° |
| 2026-05-01 14:52 | 49.95144 | 8.21900 | 4589 ft | 240 kts | 68° |
| 2026-05-01 14:53 | 49.95743 | 8.24270 | 4266 ft | 234 kts | 73° |
| 2026-05-01 14:53 | 49.96276 | 8.26627 | 3941 ft | 227 kts | 73° |
| 2026-05-01 14:53 | 49.96796 | 8.28815 | 3643 ft | 208 kts | 72° |
| 2026-05-01 14:53 | 49.97288 | 8.30822 | 3383 ft | 191 kts | 72° |
| 2026-05-01 14:54 | 49.97737 | 8.32668 | 3122 ft | 176 kts | 73° |
| 2026-05-01 14:54 | 49.98151 | 8.34370 | 2885 ft | 163 kts | 73° |
| 2026-05-01 14:54 | 49.98533 | 8.35942 | 2687 ft | 151 kts | 73° |
| 2026-05-01 14:54 | 49.98887 | 8.37398 | 2494 ft | 138 kts | 73° |
| 2026-05-01 14:55 | 49.99209 | 8.38731 | 2320 ft | 127 kts | 74° |
| 2026-05-01 14:55 | 49.99513 | 8.39981 | 2137 ft | 121 kts | 74° |
| 2026-05-01 14:55 | 49.99813 | 8.41240 | 2012 ft | 126 kts | 72° |
| 2026-05-01 14:55 | 50.00101 | 8.42506 | 1811 ft | 120 kts | 73° |
| 2026-05-01 14:56 | 50.00404 | 8.43731 | 1693 ft | 120 kts | 72° |
| 2026-05-01 14:56 | 50.00710 | 8.44950 | 1492 ft | 122 kts | 73° |
| 2026-05-01 14:56 | 50.01021 | 8.46179 | 1305 ft | 121 kts | 73° |
| 2026-05-01 14:56 | 50.01323 | 8.47414 | 1187 ft | 123 kts | 73° |
| 2026-05-01 14:57 | 50.01613 | 8.48696 | 1040 ft | 127 kts | 74° |
| 2026-05-01 14:57 | 50.02256 | 8.51333 | 648 ft | 127 kts | 73° |
| 2026-05-01 14:57 | 50.02570 | 8.52609 | 493 ft | 125 kts | 74° |
| 2026-05-01 14:58 | 50.02863 | 8.53854 | 365 ft | 113 kts | 71° |
| 2026-05-01 14:58 | 50.03005 | 8.54458 | 365 ft | 38 kts | 71° |
| 2026-05-01 14:58 | 50.03123 | 8.54595 | 365 ft | 17 kts | 342° |
| 2026-05-01 14:58 | 50.03222 | 8.54537 | 365 ft | 8 kts | 339° |
| 2026-05-01 14:59 | 50.03272 | 8.54545 | 365 ft | 8 kts | 59° |
| 2026-05-01 14:59 | 50.03311 | 8.54707 | 365 ft | 23 kts | 69° |
| 2026-05-01 14:59 | 50.03366 | 8.54939 | 365 ft | 23 kts | 70° |
| 2026-05-01 14:59 | 50.03423 | 8.55174 | 365 ft | 23 kts | 70° |
| 2026-05-01 15:00 | 50.03538 | 8.55658 | 365 ft | 24 kts | 69° |
| 2026-05-01 15:00 | 50.03599 | 8.55908 | 365 ft | 25 kts | 69° |
| 2026-05-01 15:00 | 50.03660 | 8.56164 | 365 ft | 25 kts | 69° |
| 2026-05-01 15:01 | 50.03723 | 8.56429 | 365 ft | 26 kts | 69° |
| 2026-05-01 15:01 | 50.03787 | 8.56698 | 366 ft | 27 kts | 69° |
| 2026-05-01 15:01 | 50.03874 | 8.57053 | 366 ft | 41 kts | 70° |
| 2026-05-01 15:01 | 50.03979 | 8.57496 | 366 ft | 48 kts | 70° |
| 2026-05-01 15:02 | 50.04106 | 8.58035 | 366 ft | 53 kts | 69° |
| 2026-05-01 15:02 | 50.04194 | 8.58395 | 366 ft | 53 kts | 71° |
| 2026-05-01 15:02 | 50.04354 | 8.59055 | 366 ft | 41 kts | 69° |
| 2026-05-01 15:02 | 50.04437 | 8.59403 | 366 ft | 25 kts | 70° |
| 2026-05-01 15:03 | 50.04535 | 8.59470 | 366 ft | 18 kts | 356° |
| 2026-05-01 15:03 | 50.04672 | 8.59452 | 366 ft | 21 kts | 351° |
| 2026-05-01 15:03 | 50.04808 | 8.59379 | 366 ft | 16 kts | 334° |
| 2026-05-01 15:03 | 50.04839 | 8.59221 | 366 ft | 14 kts | 248° |
| 2026-05-01 15:04 | 50.04827 | 8.59169 | 366 ft | 6 kts | 263° |
| 2026-05-01 15:04 | 50.04865 | 8.59132 | 366 ft | 7 kts | 343° |
| 2026-05-01 15:04 | 50.04903 | 8.59111 | 366 ft | 2 kts | 339° |
| 2026-05-01 15:04 | 50.04907 | 8.59108 | 366 ft | 0 kts | 339° |